createdAt,value
2018-07-20T00:00:01.311Z,6.1
2018-07-20T00:10:01.267Z,5.8
2018-07-20T00:15:01.192Z,5.7
2018-07-20T00:20:01.250Z,5.5
2018-07-20T00:25:01.206Z,5.8
2018-07-20T00:30:01.281Z,5.9
2018-07-20T00:35:01.210Z,6.2
2018-07-20T00:40:01.282Z,6.1
2018-07-20T00:45:01.216Z,6.3
2018-07-20T00:55:01.251Z,6.4
2018-07-20T01:00:01.343Z,6.2
2018-07-20T01:05:01.188Z,6.2
2018-07-20T01:15:01.324Z,6.2
2018-07-20T01:20:01.228Z,6.4
2018-07-20T01:25:01.158Z,6.6
2018-07-20T01:30:01.326Z,6.8
2018-07-20T01:35:01.176Z,7.1
2018-07-20T01:45:01.204Z,7.3
2018-07-20T01:50:01.243Z,8.0
2018-07-20T01:55:01.210Z,8.3
2018-07-20T02:00:01.210Z,8.8
2018-07-20T02:05:01.211Z,9.4
2018-07-20T02:15:01.239Z,9.8
2018-07-20T02:25:01.270Z,9.1
2018-07-20T02:30:01.282Z,9.0
2018-07-20T02:35:01.221Z,9.2
2018-07-20T02:45:01.287Z,9.5
2018-07-20T02:50:01.224Z,9.7
2018-07-20T02:55:01.222Z,8.8
2018-07-20T03:00:01.343Z,8.0
2018-07-20T03:05:01.202Z,7.7
2018-07-20T03:10:01.283Z,7.3
2018-07-20T03:15:01.232Z,7.4
2018-07-20T03:25:01.363Z,9.0
2018-07-20T03:30:01.307Z,9.5
2018-07-20T03:35:01.243Z,9.3
2018-07-20T03:45:01.283Z,8.6
2018-07-20T03:50:01.311Z,8.3
2018-07-20T03:55:01.244Z,7.7
2018-07-20T04:00:01.349Z,7.7
2018-07-20T04:05:01.245Z,7.3
2018-07-20T04:10:01.292Z,7.1
2018-07-20T04:15:01.226Z,7.2
2018-07-20T04:20:01.361Z,7.3
2018-07-20T04:30:01.314Z,8.1
2018-07-20T04:35:01.251Z,8.4
2018-07-20T04:40:01.284Z,8.9
2018-07-20T04:45:01.254Z,9.0
2018-07-20T04:50:01.493Z,8.9
2018-07-20T04:55:01.207Z,9.3
2018-07-20T05:00:01.379Z,10.1
2018-07-20T05:05:01.269Z,10.9
2018-07-20T05:10:01.315Z,11.7
2018-07-20T05:15:01.253Z,12.9
2018-07-20T05:20:01.277Z,13.6
2018-07-20T05:25:06.245Z,14.4
2018-07-20T05:30:06.344Z,14.0
2018-07-20T05:35:06.241Z,14.5
2018-07-20T05:45:06.386Z,13.9
2018-07-20T05:50:01.371Z,13.0
2018-07-20T05:55:06.322Z,13.0
2018-07-20T06:00:06.327Z,12.6
2018-07-20T06:05:01.293Z,12.2
2018-07-20T06:10:06.378Z,12.2
2018-07-20T06:15:01.211Z,11.6
2018-07-20T06:20:01.244Z,10.6
2018-07-20T06:25:01.223Z,9.6
2018-07-20T06:30:01.349Z,8.4
2018-07-20T06:35:01.190Z,7.0
2018-07-20T06:40:01.255Z,6.3
2018-07-20T06:45:06.255Z,5.8
2018-07-20T06:50:06.381Z,5.1
2018-07-20T06:55:06.359Z,4.7
2018-07-20T07:00:01.305Z,4.8
2018-07-20T07:05:01.221Z,4.6
2018-07-20T07:10:01.384Z,4.4
2018-07-20T07:15:01.431Z,4.1
2018-07-20T07:26:01.639Z,3.6
2018-07-20T07:36:06.382Z,3.2
2018-07-20T07:41:06.277Z,3.3
2018-07-20T07:46:01.284Z,3.2
2018-07-20T07:51:06.318Z,3.3
2018-07-20T07:56:06.261Z,2.9
2018-07-20T08:01:01.358Z,3.0
2018-07-20T08:06:01.239Z,3.1
2018-07-20T08:11:01.277Z,2.8
2018-07-20T08:16:01.242Z,2.5
2018-07-20T08:21:01.311Z,2.6
2018-07-20T08:31:01.377Z,2.5
2018-07-20T08:36:01.222Z,2.7
2018-07-20T08:42:06.254Z,3.1
2018-07-20T08:47:06.216Z,3.2
2018-07-20T08:52:06.310Z,3.4
2018-07-20T08:57:06.245Z,3.6
2018-07-20T09:07:01.330Z,3.6
2018-07-20T09:17:01.297Z,3.8
2018-07-20T09:22:01.307Z,3.6
2018-07-20T09:27:01.241Z,3.8
2018-07-20T09:37:01.332Z,4.0
2018-07-20T09:47:06.330Z,4.2
2018-07-20T09:52:06.387Z,4.4
2018-07-20T09:57:01.275Z,4.8
2018-07-20T10:02:06.273Z,5.0
2018-07-20T10:07:01.271Z,5.2
2018-07-20T10:12:01.285Z,5.6
2018-07-20T10:17:01.211Z,5.9
2018-07-20T10:22:01.341Z,6.2
2018-07-20T10:27:01.264Z,6.2
2018-07-20T10:32:01.310Z,6.8
2018-07-20T10:37:06.223Z,7.3
2018-07-20T10:42:06.323Z,7.7
2018-07-20T10:47:01.519Z,7.8
2018-07-20T10:53:01.269Z,8.5
2018-07-20T10:58:01.209Z,8.4
2018-07-20T11:03:01.371Z,8.1
2018-07-20T11:08:01.385Z,8.0
2018-07-20T11:13:01.314Z,8.0
2018-07-20T11:18:01.220Z,7.6
2018-07-20T11:29:01.239Z,8.0
2018-07-20T11:34:01.370Z,7.7
2018-07-20T11:39:01.253Z,7.8
2018-07-20T11:44:01.247Z,7.8
2018-07-20T11:49:01.240Z,7.5
2018-07-20T11:54:01.221Z,7.2
2018-07-20T11:59:01.350Z,7.8
2018-07-20T12:04:01.257Z,7.8
2018-07-20T12:09:06.321Z,7.7
2018-07-20T12:14:01.279Z,8.2
2018-07-20T12:19:06.287Z,8.5
2018-07-20T12:24:01.262Z,7.9
2018-07-20T12:29:01.306Z,8.3
2018-07-20T12:34:01.377Z,8.6
2018-07-20T12:44:01.317Z,8.5
2018-07-20T12:59:06.305Z,8.8
2018-07-20T13:04:01.265Z,9.2
2018-07-20T13:09:01.347Z,9.0
2018-07-20T13:14:01.279Z,9.5
2018-07-20T13:19:01.361Z,9.3
2018-07-20T13:24:01.285Z,9.0
2018-07-20T13:29:01.411Z,8.4
2018-07-20T13:34:06.249Z,8.6
2018-07-20T13:40:00.530Z,6.8
2018-07-20T13:45:00.499Z,7.8
2018-07-20T13:50:00.562Z,8.9
2018-07-20T13:55:00.473Z,8.9
2018-07-20T14:00:00.537Z,9.1
2018-07-20T14:05:00.443Z,9.6
2018-07-20T14:10:00.593Z,9.7
2018-07-20T14:15:00.507Z,9.5
2018-07-20T14:20:00.523Z,9.6
2018-07-20T14:25:00.489Z,9.1
2018-07-20T14:30:02.087Z,8.9
2018-07-20T14:37:00.508Z,9.0
2018-07-20T14:47:00.482Z,9.3
2018-07-20T14:52:00.618Z,8.8
2018-07-20T14:57:00.622Z,9.1
2018-07-20T15:02:00.561Z,9.1
2018-07-20T15:12:00.656Z,8.3
2018-07-20T15:17:00.499Z,8.4
2018-07-20T15:22:00.697Z,8.0
2018-07-20T15:27:00.531Z,8.0
2018-07-20T15:32:00.569Z,8.1
2018-07-20T15:37:01.540Z,8.6
2018-07-20T15:42:00.595Z,8.8
2018-07-20T15:47:01.652Z,9.0
2018-07-20T16:15:00.461Z,9.0
2018-07-20T16:25:00.460Z,8.5
2018-07-20T16:30:00.524Z,8.9
2018-07-20T16:35:00.362Z,8.7
2018-07-20T16:40:05.426Z,8.9
2018-07-20T16:45:00.391Z,9.0
2018-07-20T16:50:00.457Z,9.4
2018-07-20T16:55:00.394Z,9.2
2018-07-20T17:00:00.536Z,9.3
2018-07-20T17:05:00.403Z,9.3
2018-07-20T17:10:00.430Z,9.3
2018-07-20T17:15:00.416Z,9.2
2018-07-20T17:20:00.412Z,9.2
2018-07-20T17:25:00.382Z,9.4
2018-07-20T17:30:00.534Z,9.1
2018-07-20T17:35:00.516Z,9.3
2018-07-20T17:40:00.422Z,9.4
2018-07-20T17:45:00.425Z,9.2
2018-07-20T17:50:00.419Z,9.0
2018-07-20T17:55:00.415Z,9.2
2018-07-20T18:00:00.553Z,9.2
2018-07-20T18:10:00.437Z,9.5
2018-07-20T18:15:05.433Z,10.0
2018-07-20T18:20:00.431Z,10.0
2018-07-20T18:25:00.428Z,9.8
2018-07-20T18:30:00.580Z,9.6
2018-07-20T18:35:00.437Z,9.4
2018-07-20T18:40:00.442Z,9.0
2018-07-20T18:45:00.436Z,9.2
2018-07-20T18:50:00.441Z,9.4
2018-07-20T18:55:00.443Z,9.9
2018-07-20T19:00:00.543Z,9.8
2018-07-20T19:05:00.417Z,10.0
2018-07-20T19:10:00.483Z,9.8
2018-07-20T19:15:00.633Z,9.6
2018-07-20T19:20:00.519Z,9.7
2018-07-20T19:25:00.421Z,9.8
2018-07-20T19:30:00.491Z,9.7
2018-07-20T19:35:00.436Z,10.2
2018-07-20T19:40:00.466Z,10.4
2018-07-20T19:45:00.443Z,10.7
2018-07-20T19:50:00.547Z,10.7
2018-07-20T20:00:00.544Z,10.9
2018-07-20T20:05:00.483Z,11.3
2018-07-20T20:15:00.544Z,12.0
2018-07-20T20:20:00.545Z,12.3
2018-07-20T20:25:00.487Z,12.0
2018-07-20T20:30:00.554Z,11.9
2018-07-20T20:35:05.505Z,11.6
2018-07-20T20:40:00.625Z,11.4
2018-07-20T20:45:00.502Z,10.8
2018-07-20T20:50:00.599Z,11.2
2018-07-20T20:55:00.498Z,10.9
2018-07-20T21:00:00.564Z,10.6
2018-07-20T21:10:00.639Z,10.6
2018-07-20T21:15:00.474Z,10.7
2018-07-20T21:20:00.569Z,10.8
2018-07-20T21:25:00.486Z,10.6
2018-07-20T21:30:05.558Z,10.2
2018-07-20T21:35:05.568Z,9.8
2018-07-20T21:40:00.691Z,9.8
2018-07-20T21:45:00.525Z,9.7
2018-07-20T21:50:00.570Z,9.4
2018-07-20T21:55:00.538Z,9.6
2018-07-20T22:00:00.606Z,9.9
2018-07-20T22:05:00.538Z,9.5
2018-07-20T22:10:00.545Z,8.9
2018-07-20T22:15:00.533Z,9.2
2018-07-20T22:20:00.597Z,8.9
2018-07-20T22:25:00.511Z,8.5
2018-07-20T22:30:00.785Z,8.1
2018-07-20T22:35:00.544Z,8.4
2018-07-20T22:40:00.682Z,8.2
2018-07-20T22:45:00.550Z,8.3
2018-07-20T22:50:00.615Z,8.7
2018-07-20T22:55:00.547Z,9.2
2018-07-20T23:00:00.630Z,9.0
2018-07-20T23:05:00.551Z,9.5
2018-07-20T23:10:00.566Z,9.3
2018-07-20T23:15:00.531Z,9.0
2018-07-20T23:20:00.625Z,9.2
2018-07-20T23:25:00.536Z,9.1
2018-07-20T23:30:00.596Z,8.6
2018-07-20T23:35:00.556Z,8.6
2018-07-20T23:40:00.666Z,8.9
2018-07-20T23:45:00.582Z,8.9
2018-07-20T23:50:00.641Z,9.1
